createdAt,value
2022-08-26T00:01:54.388Z,4.50
2022-08-26T00:04:25.477Z,5.13
2022-08-26T00:06:53.473Z,5.15
2022-08-26T00:09:20.453Z,4.90
2022-08-26T00:11:47.346Z,5.05
2022-08-26T00:14:15.134Z,4.90
2022-08-26T00:16:47.165Z,5.00
2022-08-26T00:19:19.287Z,4.97
2022-08-26T00:21:48.550Z,4.80
2022-08-26T00:24:16.255Z,4.82
2022-08-26T00:26:43.383Z,5.40
2022-08-26T00:29:10.180Z,4.32
2022-08-26T00:31:37.395Z,4.55
2022-08-26T00:34:04.117Z,4.28
2022-08-26T00:36:31.244Z,4.38
2022-08-26T00:38:58.400Z,4.20
2022-08-26T00:41:25.362Z,4.80
2022-08-26T00:43:53.002Z,4.80
2022-08-26T00:46:28.962Z,4.68
2022-08-26T00:49:04.080Z,4.57
2022-08-26T00:51:53.441Z,4.10
2022-08-26T00:54:23.164Z,4.90
2022-08-26T00:57:02.545Z,5.07
2022-08-26T00:59:32.999Z,4.35
2022-08-26T01:02:02.910Z,4.30
2022-08-26T01:04:31.468Z,4.20
2022-08-26T01:06:59.275Z,4.30
2022-08-26T01:09:26.426Z,4.95
2022-08-26T01:11:56.555Z,4.43
2022-08-26T01:14:26.857Z,3.78
2022-08-26T01:16:53.625Z,3.88
2022-08-26T01:19:29.874Z,4.00
2022-08-26T01:22:00.228Z,4.68
2022-08-26T01:24:29.187Z,4.55
2022-08-26T01:27:02.312Z,4.25
2022-08-26T01:29:30.906Z,4.22
2022-08-26T01:31:58.216Z,4.25
2022-08-26T01:34:31.462Z,3.97
2022-08-26T01:37:13.773Z,4.33
2022-08-26T01:39:44.940Z,4.10
2022-08-26T01:42:14.675Z,4.30
2022-08-26T01:45:00.078Z,3.80
2022-08-26T01:47:31.036Z,4.53
2022-08-26T01:50:02.902Z,4.70
2022-08-26T01:52:33.673Z,4.22
2022-08-26T01:55:00.916Z,4.22
2022-08-26T01:57:28.793Z,4.35
2022-08-26T01:59:58.609Z,4.10
2022-08-26T02:02:25.911Z,3.95
2022-08-26T02:04:57.327Z,4.15
2022-08-26T02:07:26.686Z,4.28
2022-08-26T02:09:53.996Z,3.95
2022-08-26T02:12:21.737Z,4.65
2022-08-26T02:14:53.306Z,7.38
2022-08-26T02:17:25.167Z,5.47
2022-08-26T02:19:52.501Z,5.22
2022-08-26T02:22:24.661Z,4.28
2022-08-26T02:25:06.115Z,4.90
2022-08-26T02:27:35.567Z,4.85
2022-08-26T02:30:10.862Z,4.20
2022-08-26T02:32:37.849Z,4.30
2022-08-26T02:35:08.780Z,3.92
2022-08-26T02:37:36.251Z,4.90
2022-08-26T02:40:05.180Z,5.80
2022-08-26T02:42:32.373Z,6.30
2022-08-26T02:45:00.298Z,5.40
2022-08-26T02:47:28.986Z,5.35
2022-08-26T02:49:56.115Z,5.63
2022-08-26T02:52:22.822Z,8.02
2022-08-26T02:54:49.741Z,4.68
2022-08-26T03:00:15.264Z,5.15
2022-08-26T03:02:42.098Z,4.65
2022-08-26T03:05:27.117Z,5.60
2022-08-26T03:07:53.955Z,5.90
2022-08-26T03:10:22.341Z,6.32
2022-08-26T03:13:05.155Z,5.72
2022-08-26T03:15:48.386Z,5.28
2022-08-26T03:18:20.850Z,4.13
2022-08-26T03:20:47.802Z,4.95
2022-08-26T03:23:15.484Z,7.07
2022-08-26T03:25:42.297Z,5.30
2022-08-26T03:28:15.430Z,5.78
2022-08-26T03:30:46.188Z,4.90
2022-08-26T03:33:14.101Z,6.32
2022-08-26T03:38:25.903Z,4.45
2022-08-26T03:40:53.670Z,4.90
2022-08-26T03:43:38.212Z,6.22
2022-08-26T03:46:09.319Z,5.75
2022-08-26T03:48:36.115Z,5.50
2022-08-26T03:51:04.590Z,6.47
2022-08-26T03:53:31.385Z,5.50
2022-08-26T03:55:58.149Z,5.68
2022-08-26T03:58:25.393Z,5.78
2022-08-26T04:00:55.678Z,6.60
2022-08-26T04:03:41.744Z,11.77
2022-08-26T04:06:09.155Z,6.63
2022-08-26T04:08:36.397Z,6.30
2022-08-26T04:11:03.562Z,6.85
2022-08-26T04:13:30.486Z,6.50
2022-08-26T04:15:57.607Z,5.10
2022-08-26T04:18:24.365Z,5.40
2022-08-26T04:20:50.962Z,5.80
2022-08-26T04:23:17.653Z,6.20
2022-08-26T04:25:44.267Z,7.85
2022-08-26T04:28:11.033Z,6.45
2022-08-26T04:30:38.439Z,10.65
2022-08-26T04:33:12.599Z,8.13
2022-08-26T04:35:39.732Z,6.00
2022-08-26T04:38:10.884Z,5.63
2022-08-26T04:40:42.550Z,7.53
2022-08-26T04:43:14.170Z,5.03
2022-08-26T04:45:41.922Z,6.25
2022-08-26T04:48:11.029Z,6.45
2022-08-26T04:50:38.240Z,5.80
2022-08-26T04:53:09.810Z,5.40
2022-08-26T04:55:38.156Z,5.38
2022-08-26T04:58:10.236Z,5.72
2022-08-26T05:00:37.524Z,4.82
2022-08-26T05:03:04.265Z,5.15
2022-08-26T05:05:32.296Z,8.15
2022-08-26T05:08:00.536Z,6.90
2022-08-26T05:10:27.555Z,8.23
2022-08-26T05:12:54.698Z,7.43
2022-08-26T05:15:21.306Z,7.05
2022-08-26T05:17:49.375Z,6.45
2022-08-26T05:20:16.415Z,6.00
2022-08-26T05:22:44.342Z,5.57
2022-08-26T05:25:10.955Z,5.70
2022-08-26T05:27:37.776Z,7.00
2022-08-26T05:30:06.587Z,5.97
2022-08-26T05:32:33.167Z,6.30
2022-08-26T05:34:59.816Z,6.10
2022-08-26T05:37:27.314Z,8.23
2022-08-26T05:39:54.022Z,59.17
2022-08-26T05:42:20.796Z,49.13
2022-08-26T05:44:55.675Z,75.03
2022-08-26T05:47:22.996Z,48.08
2022-08-26T05:49:51.656Z,32.20
2022-08-26T05:52:19.162Z,31.35
2022-08-26T05:54:45.793Z,30.02
2022-08-26T05:57:14.736Z,25.02
2022-08-26T05:59:41.421Z,21.20
2022-08-26T06:02:08.603Z,51.65
2022-08-26T06:04:35.637Z,33.38
2022-08-26T06:07:03.288Z,27.88
2022-08-26T06:09:32.247Z,16.75
2022-08-26T06:12:01.954Z,10.15
2022-08-26T06:14:30.612Z,8.23
2022-08-26T06:16:57.584Z,6.60
2022-08-26T06:19:24.380Z,6.50
2022-08-26T06:21:54.715Z,7.70
2022-08-26T06:24:41.421Z,5.50
2022-08-26T06:27:16.945Z,8.68
2022-08-26T06:29:44.115Z,5.20
2022-08-26T06:32:11.127Z,5.72
2022-08-26T06:34:38.310Z,8.52
2022-08-26T06:37:06.479Z,5.07
2022-08-26T06:39:45.514Z,5.65
2022-08-26T06:42:12.702Z,7.70
2022-08-26T06:44:40.905Z,6.28
2022-08-26T06:47:07.883Z,7.28
2022-08-26T06:49:34.909Z,5.32
2022-08-26T06:52:01.599Z,6.47
2022-08-26T06:54:31.820Z,6.25
2022-08-26T06:56:59.193Z,6.03
2022-08-26T06:59:27.944Z,6.18
2022-08-26T07:01:55.170Z,6.38
2022-08-26T07:04:23.097Z,6.55
2022-08-26T07:06:52.838Z,5.93
2022-08-26T07:09:25.573Z,6.25
2022-08-26T07:11:53.558Z,5.03
2022-08-26T07:14:21.938Z,5.50
2022-08-26T07:16:52.109Z,6.78
2022-08-26T07:19:31.129Z,5.10
2022-08-26T07:22:03.950Z,5.57
2022-08-26T07:24:35.888Z,6.10
2022-08-26T07:27:05.859Z,6.65
2022-08-26T07:29:33.297Z,5.78
2022-08-26T07:32:00.132Z,6.60
2022-08-26T07:34:27.361Z,5.30
2022-08-26T07:36:55.347Z,4.70
2022-08-26T07:39:22.616Z,5.88
2022-08-26T07:41:49.781Z,5.68
2022-08-26T07:44:16.774Z,4.07
2022-08-26T07:46:44.096Z,6.20
2022-08-26T07:49:12.314Z,10.93
2022-08-26T07:51:39.811Z,4.25
2022-08-26T07:54:07.305Z,4.97
2022-08-26T07:56:34.517Z,4.38
2022-08-26T07:59:03.914Z,5.50
2022-08-26T08:01:40.934Z,7.28
2022-08-26T08:04:13.172Z,4.10
2022-08-26T08:06:41.789Z,4.85
2022-08-26T08:09:12.541Z,5.53
2022-08-26T08:11:41.518Z,5.53
2022-08-26T08:14:18.480Z,5.05
2022-08-26T08:16:50.991Z,4.95
2022-08-26T08:19:21.196Z,5.38
2022-08-26T08:21:51.409Z,5.20
2022-08-26T08:24:18.581Z,5.03
2022-08-26T08:26:47.622Z,5.00
2022-08-26T08:29:14.288Z,5.90
2022-08-26T08:31:58.496Z,5.90
2022-08-26T08:34:27.271Z,6.45
2022-08-26T08:36:54.623Z,5.68
2022-08-26T08:39:22.525Z,7.22
2022-08-26T08:42:04.328Z,5.78
2022-08-26T08:44:31.348Z,4.90
2022-08-26T08:47:24.709Z,4.65
2022-08-26T08:49:54.583Z,4.82
2022-08-26T08:52:37.355Z,5.15
2022-08-26T08:55:11.167Z,4.57
2022-08-26T08:58:02.810Z,4.63
2022-08-26T09:00:39.789Z,6.32
2022-08-26T09:03:33.812Z,3.95
2022-08-26T09:06:02.742Z,4.97
2022-08-26T09:08:39.060Z,6.75
2022-08-26T09:11:09.443Z,3.70
2022-08-26T09:13:39.708Z,3.75
2022-08-26T09:16:27.927Z,3.70
2022-08-26T09:19:13.182Z,4.60
2022-08-26T09:22:08.281Z,4.00
2022-08-26T09:24:42.081Z,3.70
2022-08-26T09:27:40.884Z,3.55
2022-08-26T09:30:11.460Z,4.10
2022-08-26T09:32:39.144Z,3.42
2022-08-26T09:35:11.769Z,3.33
2022-08-26T09:40:22.792Z,2.95
2022-08-26T09:43:23.097Z,2.30
2022-08-26T09:45:59.216Z,3.08
2022-08-26T09:48:36.626Z,2.85
2022-08-26T09:51:07.862Z,3.15
2022-08-26T09:53:49.676Z,3.80
2022-08-26T09:56:25.380Z,4.57
2022-08-26T09:58:53.156Z,3.35
2022-08-26T10:01:35.362Z,2.70
2022-08-26T10:04:13.419Z,1.90
2022-08-26T10:06:54.596Z,3.08
2022-08-26T10:09:23.217Z,3.00
2022-08-26T10:11:54.306Z,2.97
2022-08-26T10:14:39.392Z,2.78
2022-08-26T10:17:08.297Z,3.03
2022-08-26T10:19:51.625Z,2.80
2022-08-26T10:22:36.852Z,4.57
2022-08-26T10:25:07.000Z,3.95
2022-08-26T10:27:53.395Z,3.42
2022-08-26T10:30:23.517Z,3.60
2022-08-26T10:33:14.958Z,2.90
2022-08-26T10:35:56.656Z,3.58
2022-08-26T10:38:34.484Z,3.30
2022-08-26T10:41:22.456Z,3.40
2022-08-26T10:43:51.683Z,2.92
2022-08-26T10:46:27.415Z,3.88
2022-08-26T10:49:09.160Z,3.83
2022-08-26T10:51:46.280Z,2.90
2022-08-26T10:54:26.193Z,4.82
2022-08-26T10:56:57.470Z,4.53
2022-08-26T10:59:49.273Z,3.58
2022-08-26T11:02:37.387Z,3.08
2022-08-26T11:05:15.425Z,2.92
2022-08-26T11:07:51.480Z,2.75
2022-08-26T11:10:21.589Z,4.30
2022-08-26T11:13:00.871Z,3.35
2022-08-26T11:15:29.305Z,3.50
2022-08-26T11:18:01.959Z,3.30
2022-08-26T11:20:35.057Z,3.23
2022-08-26T11:23:35.020Z,3.85
2022-08-26T11:26:37.588Z,2.53
2022-08-26T11:29:57.198Z,3.70
2022-08-26T11:32:41.147Z,2.65
2022-08-26T11:35:21.879Z,5.50
2022-08-26T11:37:48.555Z,3.13
2022-08-26T11:40:20.425Z,4.03
2022-08-26T11:43:06.335Z,2.85
2022-08-26T11:45:37.862Z,2.90
2022-08-26T11:48:33.960Z,3.58
2022-08-26T11:51:16.015Z,2.88
2022-08-26T11:53:52.285Z,2.75
2022-08-26T11:56:27.017Z,3.50
2022-08-26T11:59:02.129Z,2.63
2022-08-26T12:01:45.475Z,3.95
2022-08-26T12:04:22.357Z,5.18
2022-08-26T12:06:51.703Z,4.65
2022-08-26T12:09:32.995Z,2.90
2022-08-26T12:12:22.064Z,3.55
2022-08-26T12:14:48.656Z,2.75
2022-08-26T12:17:26.664Z,3.25
2022-08-26T12:20:03.821Z,2.95
2022-08-26T12:22:34.901Z,2.50
2022-08-26T12:25:14.741Z,3.20
2022-08-26T12:27:53.071Z,2.90
2022-08-26T12:30:30.320Z,3.63
2022-08-26T12:33:22.972Z,3.08
2022-08-26T12:35:57.006Z,4.70
2022-08-26T12:38:27.130Z,4.00
2022-08-26T12:40:56.169Z,3.80
2022-08-26T12:43:44.253Z,4.65
2022-08-26T12:46:18.119Z,4.15
2022-08-26T12:49:05.309Z,3.33
2022-08-26T12:51:33.179Z,2.97
2022-08-26T12:54:00.515Z,3.38
2022-08-26T12:56:47.332Z,3.35
2022-08-26T12:59:25.363Z,3.67
2022-08-26T13:01:53.716Z,5.28
2022-08-26T13:05:00.582Z,5.35
2022-08-26T13:07:31.188Z,6.10
2022-08-26T13:10:00.044Z,3.95
2022-08-26T13:12:41.146Z,6.28
2022-08-26T13:15:11.318Z,3.20
2022-08-26T13:17:39.471Z,3.33
2022-08-26T13:20:10.659Z,3.63
2022-08-26T13:22:38.320Z,3.63
2022-08-26T13:25:05.535Z,3.20
2022-08-26T13:27:35.878Z,4.63
2022-08-26T13:30:04.647Z,3.00
2022-08-26T13:32:32.127Z,6.75
2022-08-26T13:34:59.093Z,3.67
2022-08-26T13:37:34.409Z,3.22
2022-08-26T13:40:05.254Z,2.97
2022-08-26T13:42:36.032Z,2.92
2022-08-26T13:45:04.011Z,3.25
2022-08-26T13:47:30.886Z,2.67
2022-08-26T13:49:58.084Z,4.65
2022-08-26T13:52:30.235Z,3.13
2022-08-26T13:55:03.709Z,4.07
2022-08-26T13:57:30.734Z,3.00
2022-08-26T14:00:00.622Z,2.70
2022-08-26T14:02:31.428Z,3.15
2022-08-26T14:05:07.390Z,3.38
2022-08-26T14:07:49.746Z,3.25
2022-08-26T14:13:11.608Z,3.30
2022-08-26T14:15:38.521Z,4.70
2022-08-26T14:20:51.107Z,3.90
2022-08-26T14:23:26.224Z,2.90
2022-08-26T14:25:56.480Z,4.00
2022-08-26T14:28:23.247Z,8.80
2022-08-26T14:30:56.127Z,8.57
2022-08-26T14:33:26.252Z,3.85
2022-08-26T14:35:53.023Z,8.52
2022-08-26T14:38:19.905Z,7.00
2022-08-26T14:40:46.690Z,5.50
2022-08-26T14:43:17.704Z,5.82
2022-08-26T14:45:45.233Z,3.33
2022-08-26T14:48:12.623Z,3.72
2022-08-26T14:50:39.369Z,4.65
2022-08-26T14:53:28.939Z,5.82
2022-08-26T14:55:55.625Z,4.63
2022-08-26T14:58:22.270Z,4.63
2022-08-26T15:00:48.902Z,5.07
2022-08-26T15:04:32.320Z,3.50
2022-08-26T15:07:00.470Z,4.10
2022-08-26T15:09:29.143Z,4.82
2022-08-26T15:11:56.498Z,3.97
2022-08-26T15:14:24.438Z,4.38
2022-08-26T15:16:54.611Z,3.40
2022-08-26T15:19:22.743Z,3.63
2022-08-26T15:21:50.036Z,3.20
2022-08-26T15:24:20.557Z,4.78
2022-08-26T15:26:48.789Z,3.35
2022-08-26T15:29:19.392Z,4.32
2022-08-26T15:31:47.644Z,6.68
2022-08-26T15:34:16.909Z,9.68
2022-08-26T15:36:51.296Z,8.13
2022-08-26T15:39:19.650Z,10.60
2022-08-26T15:41:47.560Z,4.95
2022-08-26T15:44:17.372Z,5.70
2022-08-26T15:46:44.980Z,6.00
2022-08-26T15:49:12.032Z,4.28
2022-08-26T15:51:48.200Z,3.75
2022-08-26T15:54:17.208Z,3.70
2022-08-26T15:56:45.186Z,4.70
2022-08-26T15:59:12.210Z,6.35
2022-08-26T16:01:39.657Z,4.55
2022-08-26T16:04:06.918Z,4.20
2022-08-26T16:06:36.723Z,3.63
2022-08-26T16:09:05.024Z,4.10
2022-08-26T16:11:32.000Z,3.75
2022-08-26T16:13:58.741Z,4.00
2022-08-26T16:16:26.561Z,5.07
2022-08-26T16:18:59.839Z,5.45
2022-08-26T16:21:28.705Z,3.80
2022-08-26T16:23:56.244Z,3.67
2022-08-26T16:26:26.620Z,5.43
2022-08-26T16:29:15.752Z,3.80
2022-08-26T16:31:42.844Z,3.28
2022-08-26T16:36:53.917Z,3.50
2022-08-26T16:40:14.835Z,4.05
2022-08-26T16:42:41.589Z,4.00
2022-08-26T16:45:08.876Z,4.07
2022-08-26T16:47:44.119Z,4.70
2022-08-26T16:50:18.555Z,3.65
2022-08-26T16:52:45.408Z,5.13
2022-08-26T16:55:15.360Z,6.18
2022-08-26T16:57:47.025Z,4.63
2022-08-26T17:00:31.000Z,6.20
2022-08-26T17:02:59.832Z,4.65
2022-08-26T17:05:27.934Z,4.20
2022-08-26T17:07:57.119Z,3.55
2022-08-26T17:10:25.198Z,3.95
2022-08-26T17:12:53.013Z,3.42
2022-08-26T17:15:20.538Z,3.08
2022-08-26T17:17:49.864Z,4.25
2022-08-26T17:20:23.389Z,4.97
2022-08-26T17:22:52.858Z,3.85
2022-08-26T17:25:22.055Z,4.03
2022-08-26T17:27:48.915Z,3.60
2022-08-26T17:30:16.633Z,5.72
2022-08-26T17:32:44.092Z,4.45
2022-08-26T17:35:13.009Z,4.03
2022-08-26T17:37:42.941Z,4.85
2022-08-26T17:40:12.991Z,3.72
2022-08-26T17:42:40.816Z,3.95
2022-08-26T17:45:08.870Z,11.90
2022-08-26T17:47:45.606Z,4.80
2022-08-26T17:50:17.030Z,4.75
2022-08-26T17:52:54.385Z,4.40
2022-08-26T17:55:21.422Z,4.40
2022-08-26T17:57:53.566Z,6.40
2022-08-26T18:00:23.742Z,7.05
2022-08-26T18:02:50.526Z,9.68
2022-08-26T18:05:18.235Z,8.15
2022-08-26T18:07:46.027Z,8.02
2022-08-26T18:10:15.766Z,9.32
2022-08-26T18:12:46.706Z,6.95
2022-08-26T18:15:19.118Z,7.30
2022-08-26T18:17:46.124Z,7.45
2022-08-26T18:20:19.081Z,8.70
2022-08-26T18:22:47.565Z,10.00
2022-08-26T18:25:15.671Z,10.05
2022-08-26T18:27:45.734Z,10.75
2022-08-26T18:30:20.048Z,12.23
2022-08-26T18:32:53.443Z,11.00
2022-08-26T18:35:21.661Z,11.80
2022-08-26T18:37:48.725Z,10.88
2022-08-26T18:40:16.610Z,10.10
2022-08-26T18:42:44.153Z,13.68
2022-08-26T18:45:16.121Z,10.05
2022-08-26T18:47:44.176Z,10.45
2022-08-26T18:50:11.272Z,14.27
2022-08-26T18:52:38.225Z,11.90
2022-08-26T18:55:07.177Z,9.00
2022-08-26T18:57:37.253Z,10.52
2022-08-26T19:00:06.239Z,7.38
2022-08-26T19:02:33.395Z,10.88
2022-08-26T19:05:00.486Z,7.18
2022-08-26T19:07:27.136Z,7.80
2022-08-26T19:09:54.234Z,8.13
2022-08-26T19:12:24.207Z,6.43
2022-08-26T19:14:53.774Z,7.20
2022-08-26T19:17:20.667Z,7.75
2022-08-26T19:19:49.855Z,6.97
2022-08-26T19:22:16.781Z,7.30
2022-08-26T19:24:43.595Z,7.57
2022-08-26T19:27:14.569Z,8.35
2022-08-26T19:29:42.239Z,9.45
2022-08-26T19:32:09.003Z,7.85
2022-08-26T19:34:36.648Z,7.70
2022-08-26T19:37:03.347Z,7.18
2022-08-26T19:39:30.059Z,7.28
2022-08-26T19:41:56.896Z,15.10
2022-08-26T19:44:42.628Z,6.65
2022-08-26T19:47:11.244Z,7.70
2022-08-26T19:49:38.605Z,6.70
2022-08-26T19:52:06.117Z,6.88
2022-08-26T19:54:33.502Z,7.05
2022-08-26T19:57:00.507Z,7.68
2022-08-26T19:59:27.350Z,7.45
2022-08-26T20:02:01.399Z,7.80
2022-08-26T20:04:30.581Z,7.35
2022-08-26T20:07:00.471Z,6.07
2022-08-26T20:09:28.698Z,7.22
2022-08-26T20:11:56.793Z,7.35
2022-08-26T20:14:27.625Z,8.90
2022-08-26T20:16:54.534Z,7.47
2022-08-26T20:19:43.057Z,6.95
2022-08-26T20:22:15.487Z,9.80
2022-08-26T20:24:42.412Z,8.75
2022-08-26T20:27:09.782Z,7.35
2022-08-26T20:29:40.813Z,7.00
2022-08-26T20:32:08.045Z,7.13
2022-08-26T20:34:36.273Z,7.30
2022-08-26T20:37:03.795Z,7.28
2022-08-26T20:39:30.554Z,6.75
2022-08-26T20:41:58.402Z,6.15
2022-08-26T20:44:26.011Z,5.97
2022-08-26T20:46:53.219Z,5.32
2022-08-26T20:49:20.061Z,5.82
2022-08-26T20:51:51.445Z,6.88
2022-08-26T20:54:22.122Z,7.38
2022-08-26T20:56:50.972Z,6.25
2022-08-26T20:59:18.210Z,7.97
2022-08-26T21:01:45.160Z,6.30
2022-08-26T21:04:15.821Z,5.75
2022-08-26T21:06:48.977Z,5.50
2022-08-26T21:09:21.722Z,6.63
2022-08-26T21:11:48.638Z,6.35
2022-08-26T21:14:16.996Z,7.65
2022-08-26T21:16:45.293Z,6.95
2022-08-26T21:19:15.165Z,7.80
2022-08-26T21:21:42.259Z,7.45
2022-08-26T21:24:09.409Z,7.55
2022-08-26T21:26:36.594Z,7.30
2022-08-26T21:29:04.047Z,6.65
2022-08-26T21:31:32.243Z,6.70
2022-08-26T21:33:59.830Z,6.93
2022-08-26T21:36:26.923Z,6.20
2022-08-26T21:38:58.724Z,6.25
2022-08-26T21:41:26.693Z,6.65
2022-08-26T21:43:58.039Z,6.40
2022-08-26T21:46:26.174Z,7.25
2022-08-26T21:49:01.909Z,6.05
2022-08-26T21:51:32.244Z,6.78
2022-08-26T21:54:00.700Z,6.70
2022-08-26T21:56:30.075Z,6.03
2022-08-26T21:59:00.462Z,5.80
2022-08-26T22:01:32.040Z,6.03
2022-08-26T22:03:59.185Z,6.50
2022-08-26T22:06:27.441Z,6.43
2022-08-26T22:08:55.392Z,6.68
2022-08-26T22:11:28.143Z,6.40
2022-08-26T22:13:56.858Z,6.38
2022-08-26T22:16:24.507Z,7.38
2022-08-26T22:18:51.378Z,8.23
2022-08-26T22:21:21.255Z,7.45
2022-08-26T22:23:48.027Z,7.95
2022-08-26T22:26:25.327Z,7.57
2022-08-26T22:28:58.531Z,7.80
2022-08-26T22:31:38.001Z,8.77
2022-08-26T22:34:11.168Z,7.40
2022-08-26T22:36:43.745Z,7.78
2022-08-26T22:39:12.879Z,7.70
2022-08-26T22:41:40.187Z,8.57
2022-08-26T22:44:07.608Z,8.45
2022-08-26T22:46:36.801Z,9.45
2022-08-26T22:49:04.904Z,8.32
2022-08-26T22:51:32.239Z,7.13
2022-08-26T22:53:59.196Z,8.82
2022-08-26T22:56:25.841Z,8.00
2022-08-26T22:58:52.756Z,6.05
2022-08-26T23:01:19.860Z,6.93
2022-08-26T23:03:46.756Z,6.53
2022-08-26T23:06:13.638Z,6.75
2022-08-26T23:08:41.898Z,5.97
2022-08-26T23:11:10.287Z,5.63
2022-08-26T23:13:37.645Z,5.90
2022-08-26T23:16:09.305Z,6.68
2022-08-26T23:18:36.700Z,5.55
2022-08-26T23:21:03.582Z,5.78
2022-08-26T23:23:31.195Z,6.30
2022-08-26T23:25:58.485Z,5.75
2022-08-26T23:28:26.555Z,5.70
2022-08-26T23:30:54.042Z,6.28
2022-08-26T23:33:21.218Z,5.70
2022-08-26T23:35:47.981Z,5.97
2022-08-26T23:38:16.179Z,5.90
2022-08-26T23:40:43.005Z,5.68
2022-08-26T23:43:11.625Z,5.15
2022-08-26T23:45:38.826Z,5.90
2022-08-26T23:48:06.696Z,6.72
2022-08-26T23:50:52.592Z,5.40
2022-08-26T23:53:22.022Z,5.55
2022-08-26T23:55:52.362Z,5.43
2022-08-26T23:58:21.157Z,5.57
